createdAt,value
2022-10-01T00:02:04.308Z,11.36
2022-10-01T00:03:04.295Z,10.95
2022-10-01T00:04:04.229Z,10.21
2022-10-01T00:06:04.208Z,9.99
2022-10-01T00:08:04.215Z,9.76
2022-10-01T00:10:04.254Z,10.08
2022-10-01T00:11:04.228Z,9.30
2022-10-01T00:13:04.244Z,9.88
2022-10-01T00:14:04.234Z,9.75
2022-10-01T00:15:06.177Z,10.28
2022-10-01T00:16:04.286Z,9.96
2022-10-01T00:19:04.234Z,11.06
2022-10-01T00:20:10.696Z,11.57
2022-10-01T00:22:04.260Z,10.46
2022-10-01T00:23:04.247Z,11.83
2022-10-01T00:25:04.285Z,12.09
2022-10-01T00:26:04.265Z,11.72
2022-10-01T00:28:04.299Z,10.13
2022-10-01T00:30:04.268Z,10.23
2022-10-01T00:31:04.352Z,11.39
2022-10-01T00:32:04.310Z,11.60
2022-10-01T00:33:04.297Z,11.45
2022-10-01T00:35:04.286Z,11.36
2022-10-01T00:36:04.280Z,11.14
2022-10-01T00:37:04.274Z,10.80
2022-10-01T00:38:04.286Z,11.58
2022-10-01T00:39:04.304Z,10.52
2022-10-01T00:40:04.316Z,11.61
2022-10-01T00:41:04.304Z,12.06
2022-10-01T00:42:04.292Z,11.69
2022-10-01T00:43:04.301Z,12.08
2022-10-01T00:44:04.326Z,10.69
2022-10-01T00:45:04.296Z,12.75
2022-10-01T00:46:04.379Z,11.42
2022-10-01T00:47:04.305Z,11.94
2022-10-01T00:48:04.321Z,11.46
2022-10-01T00:49:04.316Z,11.95
2022-10-01T00:50:04.318Z,11.72
2022-10-01T00:51:04.310Z,11.06
2022-10-01T00:52:04.334Z,11.77
2022-10-01T00:54:04.350Z,11.16
2022-10-01T00:55:04.350Z,10.82
2022-10-01T00:56:04.363Z,11.63
2022-10-01T00:57:04.353Z,11.48
2022-10-01T00:58:04.352Z,10.21
2022-10-01T00:59:04.371Z,10.34
2022-10-01T01:00:04.326Z,10.18
2022-10-01T01:01:04.386Z,9.79
2022-10-01T01:06:04.355Z,12.02
2022-10-01T01:07:04.358Z,11.75
2022-10-01T01:08:04.366Z,11.21
2022-10-01T01:09:04.367Z,12.67
2022-10-01T01:10:04.387Z,11.82
2022-10-01T01:11:04.376Z,11.99
2022-10-01T01:12:04.383Z,12.37
2022-10-01T01:14:04.389Z,11.88
2022-10-01T01:15:04.440Z,11.67
2022-10-01T01:16:04.427Z,12.16
2022-10-01T01:17:04.374Z,12.39
2022-10-01T01:18:04.403Z,11.46
2022-10-01T01:19:04.394Z,11.41
2022-10-01T01:22:04.416Z,12.32
2022-10-01T01:23:04.397Z,12.03
2022-10-01T01:24:04.394Z,11.91
2022-10-01T01:25:04.403Z,10.85
2022-10-01T01:28:04.426Z,11.10
2022-10-01T01:29:04.423Z,11.76
2022-10-01T01:30:04.472Z,11.69
2022-10-01T01:31:04.452Z,11.11
2022-10-01T01:32:04.415Z,12.38
2022-10-01T01:36:04.437Z,12.22
2022-10-01T01:38:04.425Z,11.48
2022-10-01T01:39:04.450Z,11.05
2022-10-01T01:40:04.454Z,12.44
2022-10-01T01:41:04.441Z,11.00
2022-10-01T01:44:04.466Z,11.39
2022-10-01T01:46:04.518Z,12.39
2022-10-01T01:48:04.454Z,11.61
2022-10-01T01:50:04.488Z,11.83
2022-10-01T01:51:04.502Z,12.49
2022-10-01T01:52:04.497Z,12.48
2022-10-01T01:53:04.487Z,12.47
2022-10-01T01:54:04.478Z,12.19
2022-10-01T01:55:04.466Z,11.46
2022-10-01T01:57:04.519Z,11.32
2022-10-01T01:58:04.494Z,11.15
2022-10-01T01:59:04.503Z,11.36
2022-10-01T02:02:04.633Z,12.77
2022-10-01T02:03:04.498Z,11.64
2022-10-01T02:04:04.478Z,11.26
2022-10-01T02:05:04.499Z,10.77
2022-10-01T02:07:04.512Z,12.44
2022-10-01T02:09:04.524Z,11.97
2022-10-01T02:11:04.532Z,12.00
2022-10-01T02:12:04.535Z,11.26
2022-10-01T02:13:04.532Z,11.47
2022-10-01T02:14:04.532Z,11.35
2022-10-01T02:15:04.525Z,10.47
2022-10-01T02:16:04.690Z,10.06
2022-10-01T02:17:04.538Z,10.12
2022-10-01T02:18:04.543Z,9.02
2022-10-01T02:19:04.545Z,9.05
2022-10-01T02:20:04.521Z,9.38
2022-10-01T02:21:04.555Z,9.66
2022-10-01T02:22:04.542Z,10.01
2022-10-01T02:23:04.543Z,10.27
2022-10-01T02:24:04.561Z,10.17
2022-10-01T02:25:04.555Z,11.32
2022-10-01T02:26:04.547Z,11.55
2022-10-01T02:28:04.623Z,10.86
2022-10-01T02:31:04.668Z,10.61
2022-10-01T02:32:04.594Z,10.26
2022-10-01T02:33:04.570Z,10.08
2022-10-01T02:34:04.568Z,10.48
2022-10-01T02:36:04.592Z,10.87
2022-10-01T02:38:04.589Z,10.73
2022-10-01T02:39:04.601Z,11.27
2022-10-01T02:40:04.595Z,9.95
2022-10-01T02:41:04.607Z,11.35
2022-10-01T02:42:04.605Z,11.50
2022-10-01T02:43:04.588Z,11.08
2022-10-01T02:44:04.619Z,10.53
2022-10-01T02:45:04.624Z,10.12
2022-10-01T02:46:04.707Z,12.21
2022-10-01T02:47:04.611Z,11.17
2022-10-01T02:48:04.599Z,11.28
2022-10-01T02:49:04.624Z,11.89
2022-10-01T02:50:04.611Z,11.68
2022-10-01T02:51:04.639Z,11.73
2022-10-01T02:52:04.606Z,11.81
2022-10-01T02:53:04.612Z,12.52
2022-10-01T02:54:04.663Z,11.75
2022-10-01T02:55:04.722Z,12.52
2022-10-01T02:56:04.640Z,12.83
2022-10-01T02:57:04.650Z,13.15
2022-10-01T02:58:04.628Z,12.34
2022-10-01T03:00:04.623Z,11.90
2022-10-01T03:01:04.637Z,12.06
2022-10-01T03:02:04.797Z,13.67
2022-10-01T03:03:04.641Z,12.62
2022-10-01T03:04:04.626Z,12.16
2022-10-01T03:05:04.743Z,12.05
2022-10-01T03:06:04.662Z,12.18
2022-10-01T03:07:04.667Z,12.98
2022-10-01T03:08:04.648Z,12.51
2022-10-01T03:09:04.683Z,12.38
2022-10-01T03:10:04.727Z,14.77
2022-10-01T03:11:04.724Z,13.21
2022-10-01T03:12:04.684Z,13.35
2022-10-01T03:13:04.682Z,12.74
2022-10-01T03:15:04.688Z,13.21
2022-10-01T03:16:04.776Z,12.40
2022-10-01T03:17:04.721Z,13.48
2022-10-01T03:20:04.715Z,14.09
2022-10-01T03:21:04.759Z,14.33
2022-10-01T03:22:04.702Z,12.75
2022-10-01T03:23:04.694Z,12.36
2022-10-01T03:24:04.702Z,12.86
2022-10-01T03:25:04.713Z,12.93
2022-10-01T03:26:04.717Z,11.43
2022-10-01T03:28:04.753Z,12.95
2022-10-01T03:30:04.703Z,12.77
2022-10-01T03:31:04.797Z,12.81
2022-10-01T03:33:04.718Z,13.14
2022-10-01T03:38:04.738Z,12.51
2022-10-01T03:39:04.757Z,12.82
2022-10-01T03:40:04.765Z,13.52
2022-10-01T03:42:04.773Z,14.26
2022-10-01T03:43:04.720Z,12.17
2022-10-01T03:44:04.756Z,13.22
2022-10-01T03:46:04.835Z,12.72
2022-10-01T03:47:04.773Z,13.59
2022-10-01T03:48:04.780Z,12.75
2022-10-01T03:49:04.764Z,12.43
2022-10-01T03:50:04.791Z,12.53
2022-10-01T03:51:04.785Z,13.20
2022-10-01T03:52:04.785Z,13.81
2022-10-01T03:53:04.764Z,13.53
2022-10-01T03:54:04.798Z,11.90
2022-10-01T03:55:04.765Z,11.48
2022-10-01T03:56:04.795Z,12.21
2022-10-01T03:59:04.791Z,12.11
2022-10-01T04:00:04.800Z,11.89
2022-10-01T04:01:04.795Z,11.09
2022-10-01T04:02:05.012Z,9.24
2022-10-01T04:03:04.874Z,9.37
2022-10-01T04:04:04.794Z,10.57
2022-10-01T04:05:04.798Z,10.01
2022-10-01T04:06:04.803Z,10.23
2022-10-01T04:07:04.796Z,9.78
2022-10-01T04:08:04.792Z,10.50
2022-10-01T04:09:04.832Z,10.89
2022-10-01T04:10:04.825Z,11.33
2022-10-01T04:11:04.843Z,9.85
2022-10-01T04:12:04.831Z,9.37
2022-10-01T04:13:04.827Z,11.02
2022-10-01T04:14:04.816Z,10.20
2022-10-01T04:15:04.876Z,10.23
2022-10-01T04:16:04.883Z,9.73
2022-10-01T04:17:04.835Z,10.64
2022-10-01T04:20:04.862Z,9.97
2022-10-01T04:21:04.849Z,10.91
2022-10-01T04:22:04.837Z,10.60
2022-10-01T04:23:04.843Z,11.43
2022-10-01T04:24:04.854Z,11.25
2022-10-01T04:25:04.850Z,12.10
2022-10-01T04:26:04.854Z,12.10
2022-10-01T04:27:04.877Z,11.89
2022-10-01T04:28:04.930Z,10.40
2022-10-01T04:29:04.882Z,11.20
2022-10-01T04:30:04.889Z,12.02
2022-10-01T04:31:04.897Z,10.87
2022-10-01T04:32:04.907Z,10.97
2022-10-01T04:33:04.885Z,11.97
2022-10-01T04:34:04.897Z,11.16
2022-10-01T04:35:04.909Z,10.65
2022-10-01T04:37:04.885Z,10.90
2022-10-01T04:38:04.901Z,11.01
2022-10-01T04:39:04.896Z,12.56
2022-10-01T04:40:04.908Z,12.06
2022-10-01T04:42:04.906Z,10.81
2022-10-01T04:43:04.896Z,11.83
2022-10-01T04:44:04.889Z,10.43
2022-10-01T04:45:04.946Z,10.79
2022-10-01T04:46:04.918Z,10.87
2022-10-01T04:47:04.954Z,11.13
2022-10-01T04:49:04.928Z,11.74
2022-10-01T04:50:04.934Z,10.91
2022-10-01T04:51:04.914Z,11.60
2022-10-01T04:52:04.934Z,11.48
2022-10-01T04:54:04.912Z,11.89
2022-10-01T04:55:04.909Z,11.06
2022-10-01T04:56:04.912Z,11.20
2022-10-01T05:03:04.973Z,11.61
2022-10-01T05:04:04.960Z,10.93
2022-10-01T05:07:04.950Z,10.77
2022-10-01T05:09:04.973Z,10.87
2022-10-01T05:10:04.973Z,10.86
2022-10-01T05:12:04.989Z,10.58
2022-10-01T05:15:04.983Z,11.22
2022-10-01T05:16:04.998Z,11.11
2022-10-01T05:17:04.999Z,10.76
2022-10-01T05:18:04.998Z,10.02
2022-10-01T05:19:04.996Z,9.63
2022-10-01T05:20:04.984Z,10.32
2022-10-01T05:21:05.023Z,9.72
2022-10-01T05:22:05.023Z,9.71
2022-10-01T05:23:05.015Z,9.66
2022-10-01T05:27:05.011Z,9.74
2022-10-01T05:30:05.099Z,9.62
2022-10-01T05:31:05.097Z,9.78
2022-10-01T05:32:05.081Z,9.53
2022-10-01T05:33:05.036Z,9.96
2022-10-01T05:34:05.033Z,9.31
2022-10-01T05:35:05.049Z,9.72
2022-10-01T05:36:05.045Z,9.50
2022-10-01T05:37:05.045Z,9.50
2022-10-01T05:38:05.044Z,9.01
2022-10-01T05:39:05.065Z,9.66
2022-10-01T05:40:05.039Z,9.59
2022-10-01T05:42:06.498Z,9.11
2022-10-01T05:45:05.041Z,9.27
2022-10-01T05:46:05.113Z,10.35
2022-10-01T05:47:05.073Z,8.70
2022-10-01T05:48:05.068Z,9.21
2022-10-01T05:49:05.057Z,9.03
2022-10-01T05:50:05.085Z,9.52
2022-10-01T05:51:05.063Z,10.34
2022-10-01T05:54:05.067Z,9.51
2022-10-01T05:55:05.076Z,9.43
2022-10-01T05:56:05.103Z,9.89
2022-10-01T05:57:05.063Z,8.43
2022-10-01T05:58:05.093Z,8.64
2022-10-01T05:59:05.100Z,9.02
2022-10-01T06:00:05.098Z,8.38
2022-10-01T06:01:05.093Z,8.05
2022-10-01T06:02:05.245Z,8.12
2022-10-01T06:04:05.110Z,8.32
2022-10-01T06:05:05.094Z,7.19
2022-10-01T06:06:05.106Z,8.26
2022-10-01T06:07:05.103Z,7.08
2022-10-01T06:08:05.120Z,6.67
2022-10-01T06:09:05.105Z,7.37
2022-10-01T06:10:05.098Z,8.04
2022-10-01T06:11:05.130Z,9.24
2022-10-01T06:12:05.099Z,8.08
2022-10-01T06:13:05.123Z,7.69
2022-10-01T06:14:05.140Z,7.80
2022-10-01T06:15:05.136Z,7.54
2022-10-01T06:16:05.186Z,9.75
2022-10-01T06:17:05.135Z,9.20
2022-10-01T06:18:05.148Z,7.86
2022-10-01T06:19:05.113Z,8.07
2022-10-01T06:22:05.171Z,8.33
2022-10-01T06:23:05.159Z,8.47
2022-10-01T06:24:05.181Z,10.20
2022-10-01T06:25:05.218Z,7.42
2022-10-01T06:26:05.153Z,7.71
2022-10-01T06:27:05.200Z,7.59
2022-10-01T06:28:05.185Z,8.05
2022-10-01T06:29:05.173Z,7.51
2022-10-01T06:30:05.163Z,7.17
2022-10-01T06:31:05.181Z,7.55
2022-10-01T06:32:05.300Z,8.43
2022-10-01T06:33:05.162Z,7.28
2022-10-01T06:35:05.185Z,7.19
2022-10-01T06:38:05.192Z,9.15
2022-10-01T06:39:05.186Z,6.91
2022-10-01T06:40:05.223Z,7.46
2022-10-01T06:41:05.219Z,6.89
2022-10-01T06:42:05.207Z,6.56
2022-10-01T06:43:05.194Z,7.25
2022-10-01T06:44:05.205Z,7.20
2022-10-01T06:46:05.391Z,7.88
2022-10-01T06:47:05.229Z,6.53
2022-10-01T06:48:05.214Z,6.13
2022-10-01T06:49:05.218Z,5.23
2022-10-01T06:50:05.220Z,6.33
2022-10-01T06:51:05.327Z,4.86
2022-10-01T06:52:05.223Z,4.92
2022-10-01T06:53:05.245Z,5.64
2022-10-01T06:54:05.202Z,5.15
2022-10-01T06:55:05.286Z,5.61
2022-10-01T06:56:05.227Z,5.28
2022-10-01T06:57:05.252Z,5.19
2022-10-01T06:58:05.236Z,5.00
2022-10-01T06:59:05.230Z,3.92
2022-10-01T07:00:05.238Z,4.74
2022-10-01T07:01:05.378Z,4.95
2022-10-01T07:02:05.271Z,4.60
2022-10-01T07:03:05.265Z,4.63
2022-10-01T07:04:05.256Z,4.15
2022-10-01T07:07:05.263Z,4.18
2022-10-01T07:08:05.253Z,4.68
2022-10-01T07:09:05.280Z,4.24
2022-10-01T07:10:05.256Z,4.18
2022-10-01T07:11:05.270Z,4.04
2022-10-01T07:12:05.289Z,4.29
2022-10-01T07:14:05.266Z,4.35
2022-10-01T07:15:05.287Z,4.11
2022-10-01T07:16:05.373Z,4.68
2022-10-01T07:17:05.284Z,4.70
2022-10-01T07:18:05.290Z,3.79
2022-10-01T07:19:05.289Z,3.95
2022-10-01T07:20:05.282Z,4.31
2022-10-01T07:21:05.289Z,4.26
2022-10-01T07:22:05.298Z,4.09
2022-10-01T07:24:05.312Z,4.87
2022-10-01T07:25:05.293Z,5.05
2022-10-01T07:26:05.291Z,6.47
2022-10-01T07:27:07.471Z,5.29
2022-10-01T07:28:05.353Z,4.69
2022-10-01T07:29:05.342Z,4.79
2022-10-01T07:30:05.315Z,5.48
2022-10-01T07:31:05.303Z,4.95
2022-10-01T07:32:05.400Z,4.99
2022-10-01T07:33:05.331Z,4.89
2022-10-01T07:34:05.336Z,4.71
2022-10-01T07:35:05.324Z,4.09
2022-10-01T07:38:05.337Z,3.58
2022-10-01T07:39:05.346Z,4.33
2022-10-01T07:40:07.311Z,4.34
2022-10-01T07:41:05.326Z,4.17
2022-10-01T07:42:05.363Z,4.20
2022-10-01T07:43:05.343Z,3.89
2022-10-01T07:44:05.361Z,4.25
2022-10-01T07:45:05.361Z,4.03
2022-10-01T07:46:05.515Z,4.67
2022-10-01T07:47:05.351Z,5.27
2022-10-01T07:48:05.349Z,5.44
2022-10-01T07:49:05.350Z,6.09
2022-10-01T07:50:05.362Z,4.61
2022-10-01T07:51:05.384Z,5.05
2022-10-01T07:52:08.580Z,4.76
2022-10-01T07:53:05.378Z,4.33
2022-10-01T07:54:05.378Z,4.15
2022-10-01T07:58:05.386Z,4.46
2022-10-01T07:59:05.382Z,3.99
2022-10-01T08:00:05.389Z,4.03
2022-10-01T08:01:05.626Z,3.88
2022-10-01T08:02:05.464Z,4.18
2022-10-01T08:03:05.398Z,4.07
2022-10-01T08:04:05.410Z,3.98
2022-10-01T08:05:05.411Z,4.05
2022-10-01T08:06:05.379Z,4.68
2022-10-01T08:07:05.408Z,4.70
2022-10-01T08:08:05.431Z,5.14
2022-10-01T08:09:05.400Z,4.35
2022-10-01T08:10:05.405Z,4.59
2022-10-01T08:11:05.403Z,4.77
2022-10-01T08:12:05.417Z,4.81
2022-10-01T08:13:05.431Z,5.37
2022-10-01T08:14:05.421Z,4.22
2022-10-01T08:15:05.411Z,5.17
2022-10-01T08:17:05.422Z,4.72
2022-10-01T08:18:05.444Z,5.02
2022-10-01T08:19:05.455Z,4.87
2022-10-01T08:21:05.440Z,4.04
2022-10-01T08:22:05.460Z,4.36
2022-10-01T08:23:05.466Z,4.07
2022-10-01T08:24:05.467Z,4.62
2022-10-01T08:25:05.458Z,4.06
2022-10-01T08:26:05.457Z,4.44
2022-10-01T08:28:05.594Z,4.42
2022-10-01T08:29:05.461Z,4.07
2022-10-01T08:30:05.470Z,4.54
2022-10-01T08:31:05.473Z,3.82
2022-10-01T08:33:05.487Z,4.31
2022-10-01T08:35:05.484Z,4.33
2022-10-01T08:37:05.509Z,4.50
2022-10-01T08:38:05.495Z,4.68
2022-10-01T08:40:05.571Z,4.05
2022-10-01T08:42:05.498Z,4.19
2022-10-01T08:43:05.499Z,4.34
2022-10-01T08:44:05.512Z,4.22
2022-10-01T08:45:05.493Z,3.99
2022-10-01T08:46:05.510Z,4.13
2022-10-01T08:47:05.510Z,3.91
2022-10-01T08:48:05.504Z,4.61
2022-10-01T08:49:05.523Z,4.09
2022-10-01T08:50:05.550Z,5.81
2022-10-01T08:51:05.491Z,5.87
2022-10-01T08:52:05.512Z,5.26
2022-10-01T08:53:05.520Z,4.92
2022-10-01T08:54:05.520Z,4.10
2022-10-01T08:55:05.508Z,4.06
2022-10-01T08:56:05.529Z,3.61
2022-10-01T08:58:05.550Z,4.10
2022-10-01T08:59:05.533Z,4.06
2022-10-01T09:00:05.536Z,4.49
2022-10-01T09:02:05.551Z,4.05
2022-10-01T09:03:05.571Z,4.00
2022-10-01T09:04:05.591Z,4.12
2022-10-01T09:05:05.557Z,3.93
2022-10-01T09:06:05.599Z,3.93
2022-10-01T09:08:05.581Z,3.62
2022-10-01T09:09:05.551Z,4.23
2022-10-01T09:10:05.594Z,3.31
2022-10-01T09:11:05.615Z,4.28
2022-10-01T09:12:05.587Z,4.08
2022-10-01T09:13:05.599Z,3.95
2022-10-01T09:14:05.589Z,4.43
2022-10-01T09:15:05.596Z,3.79
2022-10-01T09:16:05.612Z,4.23
2022-10-01T09:17:05.575Z,4.90
2022-10-01T09:18:05.604Z,4.73
2022-10-01T09:19:05.606Z,4.18
2022-10-01T09:20:05.600Z,3.61
2022-10-01T09:21:05.613Z,3.42
2022-10-01T09:22:05.608Z,3.88
2022-10-01T09:23:05.619Z,4.06
2022-10-01T09:24:05.581Z,3.96
2022-10-01T09:25:05.621Z,3.98
2022-10-01T09:26:05.618Z,3.59
2022-10-01T09:27:05.640Z,4.01
2022-10-01T09:28:05.779Z,3.90
2022-10-01T09:29:05.631Z,3.75
2022-10-01T09:31:05.749Z,4.37
2022-10-01T09:32:05.750Z,4.03
2022-10-01T09:33:05.675Z,3.73
2022-10-01T09:34:05.653Z,4.06
2022-10-01T09:35:05.640Z,3.82
2022-10-01T09:36:05.647Z,4.39
2022-10-01T09:37:05.659Z,4.03
2022-10-01T09:38:05.630Z,4.33
2022-10-01T09:39:05.654Z,3.85
2022-10-01T09:40:05.664Z,3.86
2022-10-01T09:41:05.645Z,4.23
2022-10-01T09:42:05.631Z,3.95
2022-10-01T09:43:05.663Z,4.37
2022-10-01T09:44:05.643Z,4.59
2022-10-01T09:45:05.656Z,4.33
2022-10-01T09:46:05.726Z,4.17
2022-10-01T09:47:05.648Z,3.85
2022-10-01T09:48:05.668Z,3.56
2022-10-01T09:49:05.800Z,3.77
2022-10-01T09:50:05.668Z,3.63
2022-10-01T09:52:05.657Z,3.88
2022-10-01T09:53:05.700Z,3.39
2022-10-01T09:56:05.706Z,3.38
2022-10-01T09:57:05.681Z,3.77
2022-10-01T09:58:05.726Z,4.08
2022-10-01T09:59:05.687Z,4.10
2022-10-01T10:00:05.662Z,3.83
2022-10-01T10:01:05.671Z,3.95
2022-10-01T10:02:05.761Z,3.40
2022-10-01T10:03:05.779Z,3.36
2022-10-01T10:04:05.703Z,3.67
2022-10-01T10:05:05.702Z,3.86
2022-10-01T10:06:05.703Z,3.90
2022-10-01T10:07:05.700Z,4.30
2022-10-01T10:08:05.713Z,3.73
2022-10-01T10:09:05.699Z,4.02
2022-10-01T10:10:05.709Z,4.70
2022-10-01T10:11:05.702Z,4.00
2022-10-01T10:12:05.714Z,3.61
2022-10-01T10:13:05.715Z,4.79
2022-10-01T10:14:05.740Z,4.20
2022-10-01T10:15:05.733Z,4.28
2022-10-01T10:16:05.771Z,3.97
2022-10-01T10:18:05.758Z,4.19
2022-10-01T10:19:05.740Z,4.09
2022-10-01T10:20:05.744Z,4.88
2022-10-01T10:21:05.748Z,3.99
2022-10-01T10:22:05.747Z,4.33
2022-10-01T10:24:05.762Z,4.32
2022-10-01T10:25:05.754Z,3.98
2022-10-01T10:26:05.759Z,3.09
2022-10-01T10:27:05.750Z,3.52
2022-10-01T10:28:05.831Z,3.42
2022-10-01T10:29:05.772Z,3.33
2022-10-01T10:30:05.765Z,3.24
2022-10-01T10:32:05.764Z,3.41
2022-10-01T10:33:05.763Z,3.27
2022-10-01T10:34:05.789Z,3.52
2022-10-01T10:35:05.788Z,3.41
2022-10-01T10:36:05.777Z,3.49
2022-10-01T10:37:05.794Z,3.34
2022-10-01T10:38:05.770Z,3.17
2022-10-01T10:39:05.788Z,3.66
2022-10-01T10:40:05.778Z,3.45
2022-10-01T10:41:05.801Z,3.75
2022-10-01T10:42:05.890Z,3.79
2022-10-01T10:43:05.772Z,3.80
2022-10-01T10:44:05.830Z,3.12
2022-10-01T10:45:05.801Z,3.09
2022-10-01T10:46:05.983Z,3.20
2022-10-01T10:47:05.798Z,2.92
2022-10-01T10:48:05.806Z,2.77
2022-10-01T10:49:05.845Z,3.41
2022-10-01T10:51:05.822Z,3.93
2022-10-01T10:52:05.837Z,2.79
2022-10-01T10:54:05.809Z,3.06
2022-10-01T10:55:05.818Z,3.21
2022-10-01T10:56:05.877Z,3.70
2022-10-01T10:57:05.823Z,3.13
2022-10-01T10:58:05.849Z,3.15
2022-10-01T10:59:05.847Z,4.27
2022-10-01T11:01:05.983Z,4.00
2022-10-01T11:02:06.034Z,4.15
2022-10-01T11:03:05.884Z,3.98
2022-10-01T11:06:05.866Z,3.38
2022-10-01T11:08:05.873Z,3.32
2022-10-01T11:09:05.864Z,3.58
2022-10-01T11:10:05.859Z,3.48
2022-10-01T11:11:05.880Z,2.83
2022-10-01T11:12:05.859Z,3.21
2022-10-01T11:13:05.870Z,2.92
2022-10-01T11:14:05.877Z,3.05
2022-10-01T11:15:05.875Z,2.64
2022-10-01T11:16:05.994Z,3.29
2022-10-01T11:17:05.906Z,2.48
2022-10-01T11:19:05.881Z,2.80
2022-10-01T11:20:05.904Z,2.84
2022-10-01T11:22:05.931Z,3.03
2022-10-01T11:23:05.887Z,2.98
2022-10-01T11:24:05.913Z,3.53
2022-10-01T11:25:05.913Z,3.52
2022-10-01T11:26:05.915Z,3.70
2022-10-01T11:27:05.991Z,3.20
2022-10-01T11:28:06.034Z,2.86
2022-10-01T11:30:05.925Z,3.58
2022-10-01T11:31:06.069Z,3.04
2022-10-01T11:32:05.968Z,3.39
2022-10-01T11:34:05.929Z,3.13
2022-10-01T11:35:05.940Z,3.19
2022-10-01T11:36:05.937Z,3.21
2022-10-01T11:37:06.096Z,3.15
2022-10-01T11:38:05.933Z,3.51
2022-10-01T11:39:05.956Z,3.82
2022-10-01T11:40:05.939Z,5.47
2022-10-01T11:41:05.943Z,3.66
2022-10-01T11:42:05.940Z,3.42
2022-10-01T11:43:06.074Z,5.35
2022-10-01T11:44:05.935Z,4.47
2022-10-01T11:45:05.964Z,3.72
2022-10-01T11:46:06.002Z,3.18
2022-10-01T11:47:05.952Z,2.88
2022-10-01T11:48:05.993Z,3.35
2022-10-01T11:50:05.965Z,3.28
2022-10-01T11:51:05.980Z,3.39
2022-10-01T11:52:05.969Z,3.24
2022-10-01T11:53:05.989Z,2.98
2022-10-01T11:54:05.978Z,2.96
2022-10-01T11:55:05.949Z,3.00
2022-10-01T11:56:05.960Z,3.15
2022-10-01T11:57:05.984Z,3.39
2022-10-01T11:58:06.060Z,3.50
2022-10-01T11:59:05.974Z,3.04
2022-10-01T12:00:05.996Z,3.83
2022-10-01T12:01:06.080Z,2.99
2022-10-01T12:03:06.028Z,3.35
2022-10-01T12:04:06.003Z,2.85
2022-10-01T12:05:06.013Z,3.33
2022-10-01T12:06:06.001Z,2.46
2022-10-01T12:07:05.976Z,2.73
2022-10-01T12:08:06.214Z,2.95
2022-10-01T12:09:06.007Z,2.99
2022-10-01T12:10:06.000Z,3.37
2022-10-01T12:11:06.026Z,3.61
2022-10-01T12:12:06.020Z,3.29
2022-10-01T12:13:06.031Z,3.37
2022-10-01T12:14:06.069Z,2.89
2022-10-01T12:15:07.122Z,2.96
2022-10-01T12:16:06.187Z,3.02
2022-10-01T12:17:06.011Z,3.35
2022-10-01T12:18:06.066Z,3.06
2022-10-01T12:19:06.070Z,3.16
2022-10-01T12:20:06.046Z,2.89
2022-10-01T12:21:06.060Z,3.00
2022-10-01T12:23:06.046Z,3.27
2022-10-01T12:24:06.089Z,3.42
2022-10-01T12:25:06.050Z,3.07
2022-10-01T12:26:06.055Z,2.98
2022-10-01T12:27:06.060Z,2.79
2022-10-01T12:28:06.156Z,3.68
2022-10-01T12:29:06.089Z,3.21
2022-10-01T12:30:06.074Z,3.33
2022-10-01T12:31:06.122Z,3.15
2022-10-01T12:32:06.086Z,3.18
2022-10-01T12:33:06.080Z,3.18
2022-10-01T12:34:06.076Z,2.84
2022-10-01T12:35:06.107Z,2.76
2022-10-01T12:36:06.074Z,2.99
2022-10-01T12:37:06.085Z,2.67
2022-10-01T12:38:06.079Z,2.47
2022-10-01T12:39:06.087Z,3.10
2022-10-01T12:43:06.119Z,2.74
2022-10-01T12:45:06.091Z,2.72
2022-10-01T12:46:06.152Z,2.75
2022-10-01T12:47:06.118Z,3.19
2022-10-01T12:48:06.133Z,2.62
2022-10-01T12:50:06.121Z,3.01
2022-10-01T12:51:06.119Z,2.97
2022-10-01T12:52:06.113Z,2.54
2022-10-01T12:55:06.153Z,3.09
2022-10-01T12:57:06.136Z,2.77
2022-10-01T12:58:06.137Z,2.71
2022-10-01T12:59:06.152Z,2.94
2022-10-01T13:00:06.140Z,3.27
2022-10-01T13:01:06.258Z,3.24
2022-10-01T13:02:06.182Z,2.70
2022-10-01T13:03:06.126Z,2.99
2022-10-01T13:04:06.156Z,2.87
2022-10-01T13:06:06.187Z,2.65
2022-10-01T13:08:06.177Z,2.94
2022-10-01T13:09:06.149Z,3.02
2022-10-01T13:10:06.185Z,2.40
2022-10-01T13:12:06.168Z,2.61
2022-10-01T13:13:06.161Z,3.29
2022-10-01T13:14:06.157Z,2.78
2022-10-01T13:15:06.186Z,2.82
2022-10-01T13:16:06.263Z,3.27
2022-10-01T13:17:06.193Z,3.03
2022-10-01T13:18:06.188Z,2.57
2022-10-01T13:19:06.180Z,3.11
2022-10-01T13:20:06.187Z,2.99
2022-10-01T13:21:06.178Z,3.60
2022-10-01T13:22:06.189Z,3.06
2022-10-01T13:23:06.209Z,3.45
2022-10-01T13:24:06.206Z,3.22
2022-10-01T13:25:06.182Z,3.11
2022-10-01T13:28:06.233Z,3.02
2022-10-01T13:30:06.220Z,3.10
2022-10-01T13:31:06.264Z,2.52
2022-10-01T13:32:06.206Z,3.06
2022-10-01T13:33:06.221Z,2.75
2022-10-01T13:34:06.208Z,3.21
2022-10-01T13:36:06.222Z,3.16
2022-10-01T13:37:06.221Z,2.97
2022-10-01T13:38:06.222Z,3.23
2022-10-01T13:39:06.231Z,3.21
2022-10-01T13:40:06.228Z,3.40
2022-10-01T13:41:06.254Z,3.27
2022-10-01T13:43:06.271Z,3.63
2022-10-01T13:44:06.241Z,3.48
2022-10-01T13:46:06.353Z,2.83
2022-10-01T13:50:06.266Z,3.73
2022-10-01T13:51:06.274Z,3.13
2022-10-01T13:52:06.279Z,3.24
2022-10-01T13:53:06.278Z,3.27
2022-10-01T13:54:06.264Z,3.89
2022-10-01T13:55:06.279Z,3.15
2022-10-01T13:56:06.275Z,3.19
2022-10-01T13:57:06.278Z,3.26
2022-10-01T13:58:06.284Z,2.92
2022-10-01T13:59:06.278Z,3.31
2022-10-01T14:00:06.359Z,3.45
2022-10-01T14:01:07.091Z,2.90
2022-10-01T14:02:06.398Z,3.64
2022-10-01T14:03:06.409Z,3.44
2022-10-01T14:05:06.294Z,3.29
2022-10-01T14:06:06.277Z,3.43
2022-10-01T14:07:06.305Z,3.66
2022-10-01T14:08:10.867Z,3.56
2022-10-01T14:09:06.295Z,3.39
2022-10-01T14:10:06.326Z,2.96
2022-10-01T14:11:06.314Z,2.70
2022-10-01T14:12:06.331Z,3.68
2022-10-01T14:13:06.305Z,3.01
2022-10-01T14:14:06.310Z,2.84
2022-10-01T14:15:06.328Z,3.20
2022-10-01T14:16:06.344Z,3.00
2022-10-01T14:17:06.337Z,3.41
2022-10-01T14:18:06.330Z,2.82
2022-10-01T14:19:06.322Z,2.53
2022-10-01T14:20:06.342Z,2.77
2022-10-01T14:21:06.351Z,2.30
2022-10-01T14:22:06.340Z,2.53
2022-10-01T14:23:06.335Z,3.10
2022-10-01T14:24:06.344Z,3.19
2022-10-01T14:25:06.364Z,4.06
2022-10-01T14:26:06.339Z,3.49
2022-10-01T14:27:06.355Z,2.99
2022-10-01T14:28:06.386Z,3.08
2022-10-01T14:29:06.343Z,3.08
2022-10-01T14:30:06.361Z,2.44
2022-10-01T14:31:06.435Z,2.61
2022-10-01T14:32:06.385Z,2.70
2022-10-01T14:33:06.371Z,2.51
2022-10-01T14:34:06.356Z,3.58
2022-10-01T14:35:06.377Z,3.30
2022-10-01T14:36:06.390Z,2.90
2022-10-01T14:38:06.360Z,3.58
2022-10-01T14:39:06.379Z,2.75
2022-10-01T14:40:06.381Z,2.61
2022-10-01T14:42:11.524Z,1.85
2022-10-01T14:43:06.373Z,1.78
2022-10-01T14:44:06.390Z,1.75
2022-10-01T14:45:06.401Z,1.91
2022-10-01T14:46:06.517Z,1.91
2022-10-01T14:47:06.392Z,1.51
2022-10-01T14:48:06.410Z,1.54
2022-10-01T14:49:06.420Z,1.77
2022-10-01T14:50:06.419Z,1.60
2022-10-01T14:51:06.426Z,1.73
2022-10-01T14:52:06.425Z,1.44
2022-10-01T14:53:06.436Z,1.55
2022-10-01T14:54:06.426Z,1.13
2022-10-01T14:55:06.445Z,1.33
2022-10-01T14:56:06.439Z,1.56
2022-10-01T14:57:06.424Z,1.58
2022-10-01T14:58:06.438Z,1.97
2022-10-01T14:59:06.460Z,2.20
2022-10-01T15:00:06.458Z,2.09
2022-10-01T15:01:06.446Z,1.94
2022-10-01T15:04:06.542Z,1.62
2022-10-01T15:05:06.530Z,1.66
2022-10-01T15:06:06.493Z,1.57
2022-10-01T15:07:06.471Z,1.35
2022-10-01T15:08:06.465Z,1.65
2022-10-01T15:09:06.470Z,1.78
2022-10-01T15:10:06.458Z,1.77
2022-10-01T15:11:06.473Z,1.48
2022-10-01T15:12:06.476Z,1.47
2022-10-01T15:13:06.502Z,1.46
2022-10-01T15:14:06.477Z,1.72
2022-10-01T15:15:06.488Z,1.34
2022-10-01T15:16:06.554Z,1.36
2022-10-01T15:17:06.463Z,1.33
2022-10-01T15:18:06.485Z,1.24
2022-10-01T15:19:06.487Z,1.39
2022-10-01T15:20:06.513Z,1.57
2022-10-01T15:21:06.502Z,1.58
2022-10-01T15:22:06.514Z,1.72
2022-10-01T15:23:06.483Z,2.27
2022-10-01T15:24:06.497Z,3.43
2022-10-01T15:25:06.499Z,2.40
2022-10-01T15:26:06.502Z,1.89
2022-10-01T15:27:06.521Z,2.08
2022-10-01T15:28:06.549Z,2.02
2022-10-01T15:29:06.515Z,1.70
2022-10-01T15:30:06.613Z,1.81
2022-10-01T15:31:06.577Z,1.69
2022-10-01T15:32:06.530Z,1.82
2022-10-01T15:33:06.538Z,2.06
2022-10-01T15:34:06.548Z,2.58
2022-10-01T15:35:06.518Z,1.71
2022-10-01T15:36:06.517Z,1.71
2022-10-01T15:37:06.536Z,1.74
2022-10-01T15:38:06.536Z,1.95
2022-10-01T15:39:06.527Z,1.72
2022-10-01T15:40:06.528Z,2.01
2022-10-01T15:41:30.073Z,3.07
2022-10-01T15:43:06.524Z,2.54
2022-10-01T15:44:06.549Z,4.20
2022-10-01T15:45:06.551Z,3.43
2022-10-01T15:46:06.605Z,2.72
2022-10-01T15:47:06.571Z,2.36
2022-10-01T15:48:06.602Z,1.89
2022-10-01T15:49:06.561Z,1.48